Hatcher, Louisiana
Current Conditions -  °F | °C
As of 4:55 PM on Thursday 18 Dec 2014 (Local Time) from KIER Reporting Station
Overcast Overcast  
Wind Chill: 54°   Ceiling: 1400
Heat Index: 54°   Visibility: 10mi
Dew Point: 49°   Wind: 5mph
Humidity: 85%   Direction: 80°E
Pressure: 30.13"   Gusts: NA
Location:  31.7915°N, 93.7011°W
Report Text: KIER 182255Z AUTO 08004KT 10SM OVC014 12/10 A3013 RMK AO2 T01200096
Loading
Personal Weather Stations






























Interactive Weather Map New forecast layout! Learn more

10-Day Weather Forecast

Advertisements
Track Severe Weather on mobile